sensor_id;sensor_type;location;lat;lon;timestamp;P1;durP1;ratioP1;P2;durP2;ratioP2
18947;SDS011;9607;51.600;7.558;2023-07-20T00:02:13;7.85;;;4.60;;
18947;SDS011;9607;51.600;7.558;2023-07-20T00:04:40;5.20;;;4.38;;
18947;SDS011;9607;51.600;7.558;2023-07-20T00:07:07;8.15;;;4.43;;
18947;SDS011;9607;51.600;7.558;2023-07-20T00:09:34;6.97;;;5.18;;
18947;SDS011;9607;51.600;7.558;2023-07-20T00:12:00;7.47;;;4.30;;
18947;SDS011;9607;51.600;7.558;2023-07-20T00:14:27;5.93;;;4.53;;
18947;SDS011;9607;51.600;7.558;2023-07-20T00:16:54;4.65;;;3.78;;
18947;SDS011;9607;51.600;7.558;2023-07-20T00:19:23;4.85;;;3.15;;
18947;SDS011;9607;51.600;7.558;2023-07-20T00:21:51;3.70;;;3.25;;
18947;SDS011;9607;51.600;7.558;2023-07-20T00:24:18;3.08;;;2.78;;
18947;SDS011;9607;51.600;7.558;2023-07-20T00:26:45;3.70;;;3.10;;
18947;SDS011;9607;51.600;7.558;2023-07-20T00:29:11;3.38;;;3.10;;
18947;SDS011;9607;51.600;7.558;2023-07-20T00:31:38;7.07;;;4.45;;
18947;SDS011;9607;51.600;7.558;2023-07-20T00:34:05;4.15;;;3.75;;
18947;SDS011;9607;51.600;7.558;2023-07-20T00:36:33;6.65;;;4.88;;
18947;SDS011;9607;51.600;7.558;2023-07-20T00:39:00;5.60;;;4.25;;
18947;SDS011;9607;51.600;7.558;2023-07-20T00:41:28;6.25;;;5.30;;
18947;SDS011;9607;51.600;7.558;2023-07-20T00:43:55;5.80;;;3.67;;
18947;SDS011;9607;51.600;7.558;2023-07-20T00:46:22;7.05;;;4.07;;
18947;SDS011;9607;51.600;7.558;2023-07-20T00:48:50;7.78;;;5.10;;
18947;SDS011;9607;51.600;7.558;2023-07-20T00:51:18;5.57;;;4.40;;
18947;SDS011;9607;51.600;7.558;2023-07-20T00:53:47;4.60;;;3.47;;
18947;SDS011;9607;51.600;7.558;2023-07-20T00:56:14;7.32;;;4.60;;
18947;SDS011;9607;51.600;7.558;2023-07-20T00:58:41;4.95;;;3.90;;
18947;SDS011;9607;51.600;7.558;2023-07-20T01:01:08;3.70;;;2.70;;
18947;SDS011;9607;51.600;7.558;2023-07-20T01:03:35;4.80;;;3.30;;
18947;SDS011;9607;51.600;7.558;2023-07-20T01:06:04;3.75;;;3.40;;
18947;SDS011;9607;51.600;7.558;2023-07-20T01:08:42;5.03;;;3.45;;
18947;SDS011;9607;51.600;7.558;2023-07-20T01:11:16;6.18;;;4.63;;
18947;SDS011;9607;51.600;7.558;2023-07-20T01:13:49;3.50;;;3.17;;
18947;SDS011;9607;51.600;7.558;2023-07-20T01:16:16;3.75;;;3.30;;
18947;SDS011;9607;51.600;7.558;2023-07-20T01:18:43;3.60;;;2.95;;
18947;SDS011;9607;51.600;7.558;2023-07-20T01:21:12;3.10;;;2.65;;
18947;SDS011;9607;51.600;7.558;2023-07-20T01:23:53;3.58;;;2.53;;
18947;SDS011;9607;51.600;7.558;2023-07-20T01:26:51;2.88;;;2.58;;
18947;SDS011;9607;51.600;7.558;2023-07-20T01:29:43;3.45;;;3.15;;
18947;SDS011;9607;51.600;7.558;2023-07-20T01:32:22;2.75;;;2.38;;
18947;SDS011;9607;51.600;7.558;2023-07-20T01:34:50;5.15;;;3.83;;
18947;SDS011;9607;51.600;7.558;2023-07-20T01:37:20;6.50;;;3.47;;
18947;SDS011;9607;51.600;7.558;2023-07-20T01:39:51;4.30;;;3.60;;
18947;SDS011;9607;51.600;7.558;2023-07-20T01:42:20;3.00;;;2.38;;
18947;SDS011;9607;51.600;7.558;2023-07-20T01:44:47;5.32;;;3.60;;
18947;SDS011;9607;51.600;7.558;2023-07-20T01:47:16;4.82;;;3.55;;
18947;SDS011;9607;51.600;7.558;2023-07-20T01:49:44;6.57;;;4.25;;
18947;SDS011;9607;51.600;7.558;2023-07-20T01:52:11;8.35;;;3.92;;
18947;SDS011;9607;51.600;7.558;2023-07-20T01:54:38;4.88;;;3.55;;
18947;SDS011;9607;51.600;7.558;2023-07-20T01:57:05;6.97;;;4.28;;
18947;SDS011;9607;51.600;7.558;2023-07-20T01:59:31;5.45;;;3.83;;
18947;SDS011;9607;51.600;7.558;2023-07-20T02:01:58;4.05;;;3.17;;
18947;SDS011;9607;51.600;7.558;2023-07-20T02:04:25;6.13;;;3.70;;
18947;SDS011;9607;51.600;7.558;2023-07-20T02:06:53;3.20;;;2.65;;
18947;SDS011;9607;51.600;7.558;2023-07-20T02:09:20;3.22;;;2.83;;
18947;SDS011;9607;51.600;7.558;2023-07-20T02:11:46;4.97;;;3.40;;
18947;SDS011;9607;51.600;7.558;2023-07-20T02:14:13;5.75;;;4.03;;
18947;SDS011;9607;51.600;7.558;2023-07-20T02:16:40;5.85;;;3.58;;
18947;SDS011;9607;51.600;7.558;2023-07-20T02:19:07;4.13;;;3.28;;
18947;SDS011;9607;51.600;7.558;2023-07-20T02:21:33;5.78;;;4.53;;
18947;SDS011;9607;51.600;7.558;2023-07-20T02:24:02;4.80;;;3.72;;
18947;SDS011;9607;51.600;7.558;2023-07-20T02:26:29;3.38;;;2.55;;
18947;SDS011;9607;51.600;7.558;2023-07-20T02:28:55;4.13;;;2.97;;
18947;SDS011;9607;51.600;7.558;2023-07-20T02:31:22;7.28;;;4.50;;
18947;SDS011;9607;51.600;7.558;2023-07-20T02:33:49;6.22;;;4.53;;
18947;SDS011;9607;51.600;7.558;2023-07-20T02:36:16;6.38;;;3.65;;
18947;SDS011;9607;51.600;7.558;2023-07-20T02:38:42;5.05;;;3.67;;
18947;SDS011;9607;51.600;7.558;2023-07-20T02:41:11;6.03;;;4.57;;
18947;SDS011;9607;51.600;7.558;2023-07-20T02:43:39;7.25;;;4.50;;
18947;SDS011;9607;51.600;7.558;2023-07-20T02:46:06;6.97;;;4.78;;
18947;SDS011;9607;51.600;7.558;2023-07-20T02:48:32;6.20;;;5.57;;
18947;SDS011;9607;51.600;7.558;2023-07-20T02:51:00;6.78;;;4.68;;
18947;SDS011;9607;51.600;7.558;2023-07-20T02:53:26;6.47;;;5.32;;
18947;SDS011;9607;51.600;7.558;2023-07-20T02:55:53;8.20;;;5.97;;
18947;SDS011;9607;51.600;7.558;2023-07-20T02:58:21;9.52;;;6.13;;
18947;SDS011;9607;51.600;7.558;2023-07-20T03:00:48;7.75;;;6.00;;
18947;SDS011;9607;51.600;7.558;2023-07-20T03:03:15;10.00;;;8.85;;
18947;SDS011;9607;51.600;7.558;2023-07-20T03:05:42;7.97;;;6.45;;
18947;SDS011;9607;51.600;7.558;2023-07-20T03:08:08;8.52;;;6.93;;
18947;SDS011;9607;51.600;7.558;2023-07-20T03:10:38;6.88;;;5.80;;
18947;SDS011;9607;51.600;7.558;2023-07-20T03:13:05;8.15;;;6.63;;
18947;SDS011;9607;51.600;7.558;2023-07-20T03:15:33;11.60;;;8.73;;
18947;SDS011;9607;51.600;7.558;2023-07-20T03:18:00;8.70;;;6.35;;
18947;SDS011;9607;51.600;7.558;2023-07-20T03:20:28;11.13;;;8.07;;
18947;SDS011;9607;51.600;7.558;2023-07-20T03:22:54;12.45;;;9.20;;
18947;SDS011;9607;51.600;7.558;2023-07-20T03:25:21;10.23;;;8.30;;
18947;SDS011;9607;51.600;7.558;2023-07-20T03:27:48;8.18;;;6.22;;
18947;SDS011;9607;51.600;7.558;2023-07-20T03:30:15;4.97;;;4.35;;
18947;SDS011;9607;51.600;7.558;2023-07-20T03:32:43;4.93;;;3.70;;
18947;SDS011;9607;51.600;7.558;2023-07-20T03:35:10;4.97;;;4.28;;
18947;SDS011;9607;51.600;7.558;2023-07-20T03:37:37;6.65;;;4.65;;
18947;SDS011;9607;51.600;7.558;2023-07-20T03:40:04;4.82;;;4.40;;
18947;SDS011;9607;51.600;7.558;2023-07-20T03:42:32;5.95;;;4.65;;
18947;SDS011;9607;51.600;7.558;2023-07-20T03:44:59;4.68;;;4.28;;
18947;SDS011;9607;51.600;7.558;2023-07-20T03:47:26;7.20;;;5.68;;
18947;SDS011;9607;51.600;7.558;2023-07-20T03:49:54;6.35;;;5.75;;
18947;SDS011;9607;51.600;7.558;2023-07-20T03:52:21;5.50;;;4.85;;
18947;SDS011;9607;51.600;7.558;2023-07-20T03:54:48;7.57;;;6.80;;
18947;SDS011;9607;51.600;7.558;2023-07-20T03:57:16;6.10;;;5.50;;
18947;SDS011;9607;51.600;7.558;2023-07-20T03:59:44;7.72;;;7.03;;
18947;SDS011;9607;51.600;7.558;2023-07-20T04:02:11;7.93;;;7.20;;
18947;SDS011;9607;51.600;7.558;2023-07-20T04:04:38;8.93;;;7.90;;
18947;SDS011;9607;51.600;7.558;2023-07-20T04:07:06;11.07;;;7.85;;
18947;SDS011;9607;51.600;7.558;2023-07-20T04:09:33;7.63;;;6.70;;
18947;SDS011;9607;51.600;7.558;2023-07-20T04:12:00;7.43;;;6.68;;
18947;SDS011;9607;51.600;7.558;2023-07-20T04:14:27;7.10;;;6.30;;
18947;SDS011;9607;51.600;7.558;2023-07-20T04:16:53;7.82;;;6.75;;
18947;SDS011;9607;51.600;7.558;2023-07-20T04:19:20;21.52;;;16.63;;
18947;SDS011;9607;51.600;7.558;2023-07-20T04:21:47;19.58;;;15.65;;
18947;SDS011;9607;51.600;7.558;2023-07-20T04:24:15;22.08;;;15.25;;
18947;SDS011;9607;51.600;7.558;2023-07-20T04:26:42;22.88;;;16.85;;
18947;SDS011;9607;51.600;7.558;2023-07-20T04:29:09;25.67;;;17.05;;
18947;SDS011;9607;51.600;7.558;2023-07-20T04:31:35;30.90;;;23.70;;
18947;SDS011;9607;51.600;7.558;2023-07-20T04:34:02;34.15;;;24.73;;
18947;SDS011;9607;51.600;7.558;2023-07-20T04:36:29;33.75;;;24.35;;
18947;SDS011;9607;51.600;7.558;2023-07-20T04:38:56;31.52;;;23.40;;
18947;SDS011;9607;51.600;7.558;2023-07-20T04:41:24;34.30;;;23.52;;
18947;SDS011;9607;51.600;7.558;2023-07-20T04:43:51;27.20;;;21.50;;
18947;SDS011;9607;51.600;7.558;2023-07-20T04:46:18;32.25;;;21.30;;
18947;SDS011;9607;51.600;7.558;2023-07-20T04:48:46;28.33;;;19.92;;
18947;SDS011;9607;51.600;7.558;2023-07-20T04:51:13;27.50;;;20.67;;
18947;SDS011;9607;51.600;7.558;2023-07-20T04:53:39;30.05;;;22.50;;
18947;SDS011;9607;51.600;7.558;2023-07-20T04:56:06;24.42;;;18.95;;
18947;SDS011;9607;51.600;7.558;2023-07-20T04:58:35;23.35;;;19.13;;
18947;SDS011;9607;51.600;7.558;2023-07-20T05:01:02;23.73;;;17.50;;
18947;SDS011;9607;51.600;7.558;2023-07-20T05:03:29;20.45;;;16.58;;
18947;SDS011;9607;51.600;7.558;2023-07-20T05:05:56;22.10;;;16.25;;
18947;SDS011;9607;51.600;7.558;2023-07-20T05:08:23;16.67;;;14.07;;
18947;SDS011;9607;51.600;7.558;2023-07-20T05:10:50;13.93;;;12.43;;
18947;SDS011;9607;51.600;7.558;2023-07-20T05:13:17;13.40;;;12.02;;
18947;SDS011;9607;51.600;7.558;2023-07-20T05:15:45;13.98;;;12.05;;
18947;SDS011;9607;51.600;7.558;2023-07-20T05:18:12;12.52;;;10.68;;
18947;SDS011;9607;51.600;7.558;2023-07-20T05:20:38;10.05;;;8.95;;
18947;SDS011;9607;51.600;7.558;2023-07-20T05:23:05;13.65;;;12.02;;
18947;SDS011;9607;51.600;7.558;2023-07-20T05:25:32;13.68;;;11.95;;
18947;SDS011;9607;51.600;7.558;2023-07-20T05:27:59;11.13;;;9.98;;
18947;SDS011;9607;51.600;7.558;2023-07-20T05:30:25;11.82;;;10.57;;
18947;SDS011;9607;51.600;7.558;2023-07-20T05:32:55;11.10;;;9.93;;
18947;SDS011;9607;51.600;7.558;2023-07-20T05:35:22;13.00;;;10.30;;
18947;SDS011;9607;51.600;7.558;2023-07-20T05:37:49;10.23;;;8.52;;
18947;SDS011;9607;51.600;7.558;2023-07-20T05:40:16;9.07;;;8.18;;
18947;SDS011;9607;51.600;7.558;2023-07-20T05:42:44;9.07;;;7.75;;
18947;SDS011;9607;51.600;7.558;2023-07-20T05:45:13;9.63;;;8.70;;
18947;SDS011;9607;51.600;7.558;2023-07-20T05:47:40;10.40;;;9.25;;
18947;SDS011;9607;51.600;7.558;2023-07-20T05:50:09;11.18;;;9.65;;
18947;SDS011;9607;51.600;7.558;2023-07-20T05:52:36;8.27;;;7.50;;
18947;SDS011;9607;51.600;7.558;2023-07-20T05:55:04;8.95;;;7.90;;
18947;SDS011;9607;51.600;7.558;2023-07-20T05:57:31;11.27;;;9.55;;
18947;SDS011;9607;51.600;7.558;2023-07-20T05:59:58;8.63;;;7.72;;
18947;SDS011;9607;51.600;7.558;2023-07-20T06:02:25;7.30;;;6.60;;
18947;SDS011;9607;51.600;7.558;2023-07-20T06:04:52;7.63;;;6.93;;
18947;SDS011;9607;51.600;7.558;2023-07-20T06:07:21;7.95;;;7.18;;
18947;SDS011;9607;51.600;7.558;2023-07-20T06:09:47;9.35;;;7.70;;
18947;SDS011;9607;51.600;7.558;2023-07-20T06:12:14;7.55;;;6.75;;
18947;SDS011;9607;51.600;7.558;2023-07-20T06:14:41;7.03;;;6.40;;
18947;SDS011;9607;51.600;7.558;2023-07-20T06:17:08;9.50;;;7.35;;
18947;SDS011;9607;51.600;7.558;2023-07-20T06:19:35;6.00;;;5.45;;
18947;SDS011;9607;51.600;7.558;2023-07-20T06:22:02;8.32;;;6.20;;
18947;SDS011;9607;51.600;7.558;2023-07-20T06:24:30;4.88;;;4.47;;
18947;SDS011;9607;51.600;7.558;2023-07-20T06:26:57;5.72;;;4.68;;
18947;SDS011;9607;51.600;7.558;2023-07-20T06:29:24;6.30;;;5.70;;
18947;SDS011;9607;51.600;7.558;2023-07-20T06:31:51;4.53;;;4.13;;
18947;SDS011;9607;51.600;7.558;2023-07-20T06:34:17;4.07;;;3.78;;
18947;SDS011;9607;51.600;7.558;2023-07-20T06:36:44;4.28;;;3.97;;
18947;SDS011;9607;51.600;7.558;2023-07-20T06:39:11;6.68;;;5.05;;
18947;SDS011;9607;51.600;7.558;2023-07-20T06:41:40;5.10;;;4.60;;
18947;SDS011;9607;51.600;7.558;2023-07-20T06:44:07;3.80;;;3.50;;
18947;SDS011;9607;51.600;7.558;2023-07-20T06:46:34;4.40;;;3.22;;
18947;SDS011;9607;51.600;7.558;2023-07-20T06:49:01;3.90;;;3.60;;
18947;SDS011;9607;51.600;7.558;2023-07-20T06:51:27;3.70;;;3.40;;
18947;SDS011;9607;51.600;7.558;2023-07-20T06:53:54;3.05;;;2.85;;
18947;SDS011;9607;51.600;7.558;2023-07-20T06:56:22;3.53;;;3.22;;
18947;SDS011;9607;51.600;7.558;2023-07-20T06:58:50;6.53;;;3.95;;
18947;SDS011;9607;51.600;7.558;2023-07-20T07:01:17;3.78;;;3.47;;
18947;SDS011;9607;51.600;7.558;2023-07-20T07:03:46;3.45;;;3.22;;
18947;SDS011;9607;51.600;7.558;2023-07-20T07:06:12;7.13;;;4.25;;
18947;SDS011;9607;51.600;7.558;2023-07-20T07:08:39;5.90;;;3.78;;
18947;SDS011;9607;51.600;7.558;2023-07-20T07:11:06;3.42;;;3.13;;
18947;SDS011;9607;51.600;7.558;2023-07-20T07:13:33;2.90;;;2.70;;
18947;SDS011;9607;51.600;7.558;2023-07-20T07:16:01;2.90;;;2.65;;
18947;SDS011;9607;51.600;7.558;2023-07-20T07:18:28;3.70;;;3.13;;
18947;SDS011;9607;51.600;7.558;2023-07-20T07:20:54;2.92;;;2.13;;
18947;SDS011;9607;51.600;7.558;2023-07-20T07:23:21;3.03;;;1.85;;
18947;SDS011;9607;51.600;7.558;2023-07-20T07:25:48;1.70;;;1.60;;
18947;SDS011;9607;51.600;7.558;2023-07-20T07:28:15;2.20;;;2.00;;
18947;SDS011;9607;51.600;7.558;2023-07-20T07:30:42;1.92;;;1.83;;
18947;SDS011;9607;51.600;7.558;2023-07-20T07:33:10;1.40;;;1.30;;
18947;SDS011;9607;51.600;7.558;2023-07-20T07:35:37;1.70;;;1.60;;
18947;SDS011;9607;51.600;7.558;2023-07-20T07:38:04;1.50;;;1.40;;
18947;SDS011;9607;51.600;7.558;2023-07-20T07:40:31;1.30;;;1.20;;
18947;SDS011;9607;51.600;7.558;2023-07-20T07:42:58;2.05;;;1.30;;
18947;SDS011;9607;51.600;7.558;2023-07-20T07:45:25;1.67;;;1.13;;
18947;SDS011;9607;51.600;7.558;2023-07-20T07:47:51;1.00;;;0.90;;
18947;SDS011;9607;51.600;7.558;2023-07-20T07:50:20;1.50;;;1.08;;
18947;SDS011;9607;51.600;7.558;2023-07-20T07:52:46;1.50;;;1.00;;
18947;SDS011;9607;51.600;7.558;2023-07-20T07:55:13;0.98;;;0.90;;
18947;SDS011;9607;51.600;7.558;2023-07-20T07:57:41;1.17;;;1.08;;
18947;SDS011;9607;51.600;7.558;2023-07-20T08:00:09;1.42;;;1.00;;
18947;SDS011;9607;51.600;7.558;2023-07-20T08:02:39;0.90;;;0.85;;
18947;SDS011;9607;51.600;7.558;2023-07-20T08:05:06;1.02;;;0.70;;
18947;SDS011;9607;51.600;7.558;2023-07-20T08:07:35;1.63;;;1.20;;
18947;SDS011;9607;51.600;7.558;2023-07-20T08:10:02;1.45;;;1.23;;
18947;SDS011;9607;51.600;7.558;2023-07-20T08:12:29;2.13;;;1.80;;
18947;SDS011;9607;51.600;7.558;2023-07-20T08:14:55;1.55;;;1.45;;
18947;SDS011;9607;51.600;7.558;2023-07-20T08:17:22;1.58;;;1.40;;
18947;SDS011;9607;51.600;7.558;2023-07-20T08:19:49;2.63;;;1.58;;
18947;SDS011;9607;51.600;7.558;2023-07-20T08:22:16;1.25;;;1.10;;
18947;SDS011;9607;51.600;7.558;2023-07-20T08:24:44;1.30;;;1.10;;
18947;SDS011;9607;51.600;7.558;2023-07-20T08:27:11;1.17;;;1.08;;
18947;SDS011;9607;51.600;7.558;2023-07-20T08:29:38;2.78;;;1.40;;
18947;SDS011;9607;51.600;7.558;2023-07-20T08:32:05;1.20;;;1.10;;
18947;SDS011;9607;51.600;7.558;2023-07-20T08:34:33;1.65;;;1.10;;
18947;SDS011;9607;51.600;7.558;2023-07-20T08:36:59;2.08;;;1.48;;
18947;SDS011;9607;51.600;7.558;2023-07-20T08:39:26;1.40;;;1.30;;
18947;SDS011;9607;51.600;7.558;2023-07-20T08:41:54;1.00;;;0.90;;
18947;SDS011;9607;51.600;7.558;2023-07-20T08:44:22;1.15;;;0.90;;
18947;SDS011;9607;51.600;7.558;2023-07-20T08:46:50;0.90;;;0.90;;
18947;SDS011;9607;51.600;7.558;2023-07-20T08:49:18;0.70;;;0.70;;
18947;SDS011;9607;51.600;7.558;2023-07-20T08:51:45;0.68;;;0.68;;
18947;SDS011;9607;51.600;7.558;2023-07-20T08:54:13;1.00;;;0.90;;
18947;SDS011;9607;51.600;7.558;2023-07-20T08:56:42;2.42;;;0.85;;
18947;SDS011;9607;51.600;7.558;2023-07-20T08:59:13;2.08;;;1.10;;
18947;SDS011;9607;51.600;7.558;2023-07-20T09:01:42;1.02;;;0.70;;
18947;SDS011;9607;51.600;7.558;2023-07-20T09:04:10;1.27;;;0.80;;
18947;SDS011;9607;51.600;7.558;2023-07-20T09:06:38;3.25;;;0.98;;
18947;SDS011;9607;51.600;7.558;2023-07-20T09:09:04;0.77;;;0.70;;
18947;SDS011;9607;51.600;7.558;2023-07-20T09:11:31;1.55;;;1.00;;
18947;SDS011;9607;51.600;7.558;2023-07-20T09:14:05;1.95;;;0.80;;
18947;SDS011;9607;51.600;7.558;2023-07-20T09:16:34;1.13;;;0.80;;
18947;SDS011;9607;51.600;7.558;2023-07-20T09:19:14;1.88;;;0.80;;
18947;SDS011;9607;51.600;7.558;2023-07-20T09:21:43;0.80;;;0.80;;
18947;SDS011;9607;51.600;7.558;2023-07-20T09:24:11;1.10;;;0.98;;
18947;SDS011;9607;51.600;7.558;2023-07-20T09:26:42;3.67;;;1.13;;
18947;SDS011;9607;51.600;7.558;2023-07-20T09:29:10;6.20;;;1.08;;
18947;SDS011;9607;51.600;7.558;2023-07-20T09:31:38;1.05;;;0.60;;
18947;SDS011;9607;51.600;7.558;2023-07-20T09:34:06;1.25;;;0.80;;
18947;SDS011;9607;51.600;7.558;2023-07-20T09:36:33;3.55;;;1.00;;
18947;SDS011;9607;51.600;7.558;2023-07-20T09:39:02;0.90;;;0.70;;
18947;SDS011;9607;51.600;7.558;2023-07-20T09:41:30;0.93;;;0.85;;
18947;SDS011;9607;51.600;7.558;2023-07-20T09:44:05;1.13;;;0.88;;
18947;SDS011;9607;51.600;7.558;2023-07-20T09:46:42;1.13;;;0.60;;
18947;SDS011;9607;51.600;7.558;2023-07-20T09:49:10;0.90;;;0.80;;
18947;SDS011;9607;51.600;7.558;2023-07-20T09:51:37;0.70;;;0.70;;
18947;SDS011;9607;51.600;7.558;2023-07-20T09:54:04;3.13;;;0.80;;
18947;SDS011;9607;51.600;7.558;2023-07-20T09:56:32;0.60;;;0.45;;
18947;SDS011;9607;51.600;7.558;2023-07-20T09:58:59;1.23;;;0.95;;
18947;SDS011;9607;51.600;7.558;2023-07-20T10:01:26;0.90;;;0.90;;
18947;SDS011;9607;51.600;7.558;2023-07-20T10:03:58;0.90;;;0.90;;
18947;SDS011;9607;51.600;7.558;2023-07-20T10:06:26;0.95;;;0.93;;
18947;SDS011;9607;51.600;7.558;2023-07-20T10:08:56;0.85;;;0.82;;
18947;SDS011;9607;51.600;7.558;2023-07-20T10:11:27;0.50;;;0.50;;
18947;SDS011;9607;51.600;7.558;2023-07-20T10:13:58;0.50;;;0.50;;
18947;SDS011;9607;51.600;7.558;2023-07-20T10:16:26;2.20;;;0.65;;
18947;SDS011;9607;51.600;7.558;2023-07-20T10:18:59;0.50;;;0.50;;
18947;SDS011;9607;51.600;7.558;2023-07-20T10:21:31;0.70;;;0.55;;
18947;SDS011;9607;51.600;7.558;2023-07-20T10:24:00;1.10;;;1.00;;
18947;SDS011;9607;51.600;7.558;2023-07-20T10:26:28;1.27;;;1.17;;
18947;SDS011;9607;51.600;7.558;2023-07-20T10:28:56;1.35;;;1.10;;
18947;SDS011;9607;51.600;7.558;2023-07-20T10:31:24;3.05;;;1.20;;
18947;SDS011;9607;51.600;7.558;2023-07-20T10:33:54;0.70;;;0.70;;
18947;SDS011;9607;51.600;7.558;2023-07-20T10:36:25;1.15;;;0.63;;
18947;SDS011;9607;51.600;7.558;2023-07-20T10:38:53;0.70;;;0.40;;
18947;SDS011;9607;51.600;7.558;2023-07-20T10:41:22;0.82;;;0.63;;
18947;SDS011;9607;51.600;7.558;2023-07-20T10:43:57;0.60;;;0.60;;
18947;SDS011;9607;51.600;7.558;2023-07-20T10:46:34;1.30;;;1.05;;
18947;SDS011;9607;51.600;7.558;2023-07-20T10:49:08;0.82;;;0.82;;
18947;SDS011;9607;51.600;7.558;2023-07-20T10:51:40;0.70;;;0.55;;
18947;SDS011;9607;51.600;7.558;2023-07-20T10:54:09;1.15;;;0.60;;
18947;SDS011;9607;51.600;7.558;2023-07-20T10:59:50;0.50;;;0.50;;
18947;SDS011;9607;51.600;7.558;2023-07-20T11:02:18;3.08;;;0.70;;
18947;SDS011;9607;51.600;7.558;2023-07-20T11:04:46;1.55;;;0.70;;
18947;SDS011;9607;51.600;7.558;2023-07-20T11:07:16;2.03;;;0.90;;
18947;SDS011;9607;51.600;7.558;2023-07-20T11:09:43;1.33;;;0.80;;
18947;SDS011;9607;51.600;7.558;2023-07-20T11:12:10;1.10;;;1.00;;
18947;SDS011;9607;51.600;7.558;2023-07-20T11:14:39;0.80;;;0.80;;
18947;SDS011;9607;51.600;7.558;2023-07-20T11:17:13;1.00;;;0.68;;
18947;SDS011;9607;51.600;7.558;2023-07-20T11:19:41;1.10;;;0.98;;
18947;SDS011;9607;51.600;7.558;2023-07-20T11:22:08;0.80;;;0.80;;
18947;SDS011;9607;51.600;7.558;2023-07-20T11:24:39;3.47;;;1.10;;
18947;SDS011;9607;51.600;7.558;2023-07-20T11:27:06;2.25;;;0.90;;
18947;SDS011;9607;51.600;7.558;2023-07-20T11:29:34;1.70;;;0.75;;
18947;SDS011;9607;51.600;7.558;2023-07-20T11:32:03;0.77;;;0.50;;
18947;SDS011;9607;51.600;7.558;2023-07-20T11:34:31;1.08;;;0.65;;
18947;SDS011;9607;51.600;7.558;2023-07-20T11:36:59;2.30;;;0.77;;
18947;SDS011;9607;51.600;7.558;2023-07-20T11:39:26;2.25;;;0.77;;
18947;SDS011;9607;51.600;7.558;2023-07-20T11:41:56;1.27;;;1.08;;
18947;SDS011;9607;51.600;7.558;2023-07-20T11:44:25;0.70;;;0.70;;
18947;SDS011;9607;51.600;7.558;2023-07-20T11:46:59;1.23;;;0.70;;
18947;SDS011;9607;51.600;7.558;2023-07-20T11:49:28;1.67;;;0.60;;
18947;SDS011;9607;51.600;7.558;2023-07-20T11:51:55;1.77;;;0.80;;
18947;SDS011;9607;51.600;7.558;2023-07-20T11:54:23;1.02;;;0.75;;
18947;SDS011;9607;51.600;7.558;2023-07-20T11:56:53;1.02;;;0.80;;
18947;SDS011;9607;51.600;7.558;2023-07-20T11:59:21;0.50;;;0.50;;
18947;SDS011;9607;51.600;7.558;2023-07-20T12:01:48;1.00;;;0.90;;
18947;SDS011;9607;51.600;7.558;2023-07-20T12:04:15;0.85;;;0.80;;
18947;SDS011;9607;51.600;7.558;2023-07-20T12:06:42;1.55;;;0.80;;
18947;SDS011;9607;51.600;7.558;2023-07-20T12:09:13;1.55;;;0.50;;
18947;SDS011;9607;51.600;7.558;2023-07-20T12:11:42;0.85;;;0.60;;
18947;SDS011;9607;51.600;7.558;2023-07-20T12:14:10;0.60;;;0.60;;
18947;SDS011;9607;51.600;7.558;2023-07-20T12:16:38;0.43;;;0.40;;
18947;SDS011;9607;51.600;7.558;2023-07-20T12:19:05;1.23;;;0.50;;
18947;SDS011;9607;51.600;7.558;2023-07-20T12:21:34;1.75;;;0.70;;
18947;SDS011;9607;51.600;7.558;2023-07-20T12:24:03;1.80;;;0.50;;
18947;SDS011;9607;51.600;7.558;2023-07-20T12:26:30;1.42;;;0.90;;
18947;SDS011;9607;51.600;7.558;2023-07-20T12:28:58;1.05;;;0.57;;
18947;SDS011;9607;51.600;7.558;2023-07-20T12:31:26;2.40;;;0.80;;
18947;SDS011;9607;51.600;7.558;2023-07-20T12:33:56;0.70;;;0.70;;
18947;SDS011;9607;51.600;7.558;2023-07-20T12:36:24;0.90;;;0.50;;
18947;SDS011;9607;51.600;7.558;2023-07-20T12:38:51;0.65;;;0.50;;
18947;SDS011;9607;51.600;7.558;2023-07-20T12:41:18;0.73;;;0.55;;
18947;SDS011;9607;51.600;7.558;2023-07-20T12:43:45;1.08;;;0.70;;
18947;SDS011;9607;51.600;7.558;2023-07-20T12:46:12;2.15;;;0.50;;
18947;SDS011;9607;51.600;7.558;2023-07-20T12:48:39;0.40;;;0.40;;
18947;SDS011;9607;51.600;7.558;2023-07-20T12:51:08;0.88;;;0.50;;
18947;SDS011;9607;51.600;7.558;2023-07-20T12:53:36;1.30;;;0.40;;
18947;SDS011;9607;51.600;7.558;2023-07-20T12:56:04;1.42;;;0.70;;
18947;SDS011;9607;51.600;7.558;2023-07-20T12:58:31;0.82;;;0.40;;
18947;SDS011;9607;51.600;7.558;2023-07-20T13:00:58;0.40;;;0.30;;
18947;SDS011;9607;51.600;7.558;2023-07-20T13:03:24;0.60;;;0.40;;
18947;SDS011;9607;51.600;7.558;2023-07-20T13:05:51;0.77;;;0.40;;
18947;SDS011;9607;51.600;7.558;2023-07-20T13:08:19;1.10;;;0.50;;
18947;SDS011;9607;51.600;7.558;2023-07-20T13:10:50;1.02;;;0.50;;
18947;SDS011;9607;51.600;7.558;2023-07-20T13:13:17;0.52;;;0.52;;
18947;SDS011;9607;51.600;7.558;2023-07-20T13:15:44;0.73;;;0.50;;
18947;SDS011;9607;51.600;7.558;2023-07-20T13:18:11;1.35;;;0.60;;
18947;SDS011;9607;51.600;7.558;2023-07-20T13:20:38;0.40;;;0.30;;
18947;SDS011;9607;51.600;7.558;2023-07-20T13:23:05;0.70;;;0.40;;
18947;SDS011;9607;51.600;7.558;2023-07-20T13:25:33;1.13;;;0.50;;
18947;SDS011;9607;51.600;7.558;2023-07-20T13:28:00;0.63;;;0.50;;
18947;SDS011;9607;51.600;7.558;2023-07-20T13:30:27;0.57;;;0.50;;
18947;SDS011;9607;51.600;7.558;2023-07-20T13:32:54;1.08;;;0.50;;
18947;SDS011;9607;51.600;7.558;2023-07-20T13:35:21;0.40;;;0.40;;
18947;SDS011;9607;51.600;7.558;2023-07-20T13:37:47;1.08;;;0.50;;
18947;SDS011;9607;51.600;7.558;2023-07-20T13:40:15;0.95;;;0.40;;
18947;SDS011;9607;51.600;7.558;2023-07-20T13:42:45;0.90;;;0.45;;
18947;SDS011;9607;51.600;7.558;2023-07-20T13:45:12;0.68;;;0.43;;
18947;SDS011;9607;51.600;7.558;2023-07-20T13:47:38;0.80;;;0.30;;
18947;SDS011;9607;51.600;7.558;2023-07-20T13:50:06;0.82;;;0.45;;
18947;SDS011;9607;51.600;7.558;2023-07-20T13:52:33;0.85;;;0.40;;
18947;SDS011;9607;51.600;7.558;2023-07-20T13:55:00;1.30;;;0.40;;
18947;SDS011;9607;51.600;7.558;2023-07-20T13:57:27;1.05;;;0.60;;
18947;SDS011;9607;51.600;7.558;2023-07-20T13:59:55;0.98;;;0.50;;
18947;SDS011;9607;51.600;7.558;2023-07-20T14:02:22;1.65;;;0.47;;
18947;SDS011;9607;51.600;7.558;2023-07-20T14:04:49;0.52;;;0.30;;
18947;SDS011;9607;51.600;7.558;2023-07-20T14:07:15;0.50;;;0.30;;
18947;SDS011;9607;51.600;7.558;2023-07-20T14:09:42;1.67;;;0.70;;
18947;SDS011;9607;51.600;7.558;2023-07-20T14:12:09;2.55;;;0.82;;
18947;SDS011;9607;51.600;7.558;2023-07-20T14:14:39;1.17;;;0.52;;
18947;SDS011;9607;51.600;7.558;2023-07-20T14:17:07;0.45;;;0.38;;
18947;SDS011;9607;51.600;7.558;2023-07-20T14:19:34;0.30;;;0.30;;
18947;SDS011;9607;51.600;7.558;2023-07-20T14:22:02;0.60;;;0.60;;
18947;SDS011;9607;51.600;7.558;2023-07-20T14:24:29;0.85;;;0.50;;
18947;SDS011;9607;51.600;7.558;2023-07-20T14:26:56;0.90;;;0.50;;
18947;SDS011;9607;51.600;7.558;2023-07-20T14:29:25;1.30;;;0.40;;
18947;SDS011;9607;51.600;7.558;2023-07-20T14:31:52;0.80;;;0.45;;
18947;SDS011;9607;51.600;7.558;2023-07-20T14:34:20;1.65;;;0.60;;
18947;SDS011;9607;51.600;7.558;2023-07-20T14:36:47;0.82;;;0.40;;
18947;SDS011;9607;51.600;7.558;2023-07-20T14:39:15;0.45;;;0.45;;
18947;SDS011;9607;51.600;7.558;2023-07-20T14:41:41;0.70;;;0.60;;
18947;SDS011;9607;51.600;7.558;2023-07-20T14:44:08;0.70;;;0.47;;
18947;SDS011;9607;51.600;7.558;2023-07-20T14:46:35;0.88;;;0.50;;
18947;SDS011;9607;51.600;7.558;2023-07-20T14:49:01;0.93;;;0.40;;
18947;SDS011;9607;51.600;7.558;2023-07-20T14:51:30;0.75;;;0.32;;
18947;SDS011;9607;51.600;7.558;2023-07-20T14:53:58;0.98;;;0.50;;
18947;SDS011;9607;51.600;7.558;2023-07-20T14:56:25;0.40;;;0.40;;
18947;SDS011;9607;51.600;7.558;2023-07-20T14:58:52;0.65;;;0.30;;
18947;SDS011;9607;51.600;7.558;2023-07-20T15:01:19;0.32;;;0.32;;
18947;SDS011;9607;51.600;7.558;2023-07-20T15:03:46;0.30;;;0.30;;
18947;SDS011;9607;51.600;7.558;2023-07-20T15:06:15;0.77;;;0.57;;